createdAt,value
2017-09-27T00:01:43.240Z,16.23
2017-09-27T00:04:14.674Z,16.20
2017-09-27T00:06:45.718Z,16.20
2017-09-27T00:09:16.827Z,16.16
2017-09-27T00:11:48.182Z,16.13
2017-09-27T00:14:19.337Z,16.10
2017-09-27T00:16:50.426Z,16.05
2017-09-27T00:19:22.251Z,16.02
2017-09-27T00:22:55.495Z,15.99
2017-09-27T00:25:26.862Z,15.97
2017-09-27T00:27:57.954Z,15.97
2017-09-27T00:30:29.503Z,15.93
2017-09-27T00:33:01.073Z,15.89
2017-09-27T00:35:32.607Z,15.85
2017-09-27T00:38:05.195Z,15.84
2017-09-27T00:40:36.578Z,15.80
2017-09-27T00:43:07.634Z,15.81
2017-09-27T00:45:38.978Z,15.82
2017-09-27T00:48:10.037Z,15.80
2017-09-27T00:50:41.121Z,15.76
2017-09-27T00:53:12.475Z,15.72
2017-09-27T00:55:43.611Z,15.72
2017-09-27T00:58:14.750Z,15.71
2017-09-27T01:00:45.838Z,15.71
2017-09-27T01:03:17.371Z,15.66
2017-09-27T01:05:48.447Z,15.58
2017-09-27T01:08:20.010Z,15.59
2017-09-27T01:10:51.139Z,15.59
2017-09-27T01:13:22.222Z,15.54
2017-09-27T01:15:53.607Z,15.48
2017-09-27T01:18:24.679Z,15.44
2017-09-27T01:20:55.796Z,15.43
2017-09-27T01:23:27.170Z,15.42
2017-09-27T01:25:58.313Z,15.44
2017-09-27T01:28:29.971Z,15.47
2017-09-27T01:31:01.884Z,15.45
2017-09-27T01:33:34.095Z,15.43
2017-09-27T01:36:05.820Z,15.42
2017-09-27T01:38:36.942Z,15.41
2017-09-27T01:41:08.048Z,15.41
2017-09-27T01:43:39.749Z,15.40
2017-09-27T01:46:10.848Z,15.38
2017-09-27T01:48:42.258Z,15.38
2017-09-27T01:51:13.358Z,15.38
2017-09-27T01:53:44.495Z,15.34
2017-09-27T01:56:15.937Z,15.30
2017-09-27T01:58:47.037Z,15.30
2017-09-27T02:01:18.173Z,15.28
2017-09-27T02:03:49.572Z,15.28
2017-09-27T02:06:20.679Z,15.28
2017-09-27T02:08:52.036Z,15.23
2017-09-27T02:11:23.125Z,15.19
2017-09-27T02:13:54.164Z,15.24
2017-09-27T02:16:25.707Z,15.26
2017-09-27T02:18:56.749Z,15.28
2017-09-27T02:21:27.981Z,15.24
2017-09-27T02:23:59.380Z,15.20
2017-09-27T02:26:31.346Z,15.18
2017-09-27T02:29:02.462Z,15.15
2017-09-27T02:31:34.980Z,15.14
2017-09-27T02:34:06.202Z,15.11
2017-09-27T02:36:37.584Z,15.07
2017-09-27T02:39:08.668Z,15.03
2017-09-27T02:41:40.045Z,15.02
2017-09-27T02:44:11.408Z,15.00
2017-09-27T02:46:42.537Z,15.01
2017-09-27T02:49:13.639Z,15.02
2017-09-27T02:51:44.968Z,15.02
2017-09-27T02:54:16.050Z,15.01
2017-09-27T02:56:47.345Z,15.01
2017-09-27T02:59:18.418Z,14.99
2017-09-27T03:01:49.467Z,14.99
2017-09-27T03:04:20.811Z,14.95
2017-09-27T03:06:51.916Z,14.90
2017-09-27T03:09:22.994Z,14.87
2017-09-27T03:11:54.331Z,14.86
2017-09-27T03:14:25.634Z,14.86
2017-09-27T03:16:56.712Z,14.82
2017-09-27T03:19:28.102Z,14.83
2017-09-27T03:21:59.185Z,14.83
2017-09-27T03:24:30.660Z,14.81
2017-09-27T03:27:01.889Z,14.75
2017-09-27T03:29:34.243Z,14.74
2017-09-27T03:32:06.051Z,14.71
2017-09-27T03:34:37.121Z,14.68
2017-09-27T03:37:08.186Z,14.69
2017-09-27T03:39:39.518Z,14.71
2017-09-27T03:42:10.642Z,14.71
2017-09-27T03:44:41.961Z,14.71
2017-09-27T03:47:13.062Z,14.66
2017-09-27T03:49:44.148Z,14.67
2017-09-27T03:52:15.501Z,14.64
2017-09-27T03:54:46.562Z,14.63
2017-09-27T03:57:17.660Z,14.58
2017-09-27T03:59:49.093Z,14.55
2017-09-27T04:02:20.134Z,14.52
2017-09-27T04:04:51.217Z,14.48
2017-09-27T04:07:22.571Z,14.45
2017-09-27T04:09:53.637Z,14.43
2017-09-27T04:12:25.000Z,14.43
2017-09-27T04:14:56.064Z,14.43
2017-09-27T04:17:29.258Z,14.45
2017-09-27T04:20:00.837Z,14.48
2017-09-27T04:22:34.531Z,14.50
2017-09-27T04:25:05.913Z,14.50
2017-09-27T04:27:37.344Z,14.53
2017-09-27T04:30:08.418Z,14.55
2017-09-27T04:32:39.751Z,14.58
2017-09-27T04:35:10.834Z,14.54
2017-09-27T04:37:42.223Z,14.52
2017-09-27T04:40:14.726Z,14.52
2017-09-27T04:42:45.818Z,14.52
2017-09-27T04:45:17.236Z,14.54
2017-09-27T04:47:48.340Z,14.53
2017-09-27T04:50:19.471Z,14.59
2017-09-27T04:52:50.815Z,14.58
2017-09-27T04:55:21.895Z,14.60
2017-09-27T04:57:52.944Z,14.62
2017-09-27T05:00:24.339Z,14.61
2017-09-27T05:02:55.491Z,14.56
2017-09-27T05:05:26.671Z,14.54
2017-09-27T05:07:58.045Z,14.54
2017-09-27T05:10:30.161Z,14.53
2017-09-27T05:13:01.923Z,14.59
2017-09-27T05:15:34.073Z,14.63
2017-09-27T05:18:06.148Z,14.68
2017-09-27T05:20:37.589Z,14.68
2017-09-27T05:23:08.722Z,14.69
2017-09-27T05:25:39.849Z,14.69
2017-09-27T05:28:11.462Z,14.72
2017-09-27T05:30:45.874Z,14.75
2017-09-27T05:33:21.455Z,14.75
2017-09-27T05:35:54.147Z,14.76
2017-09-27T05:38:25.206Z,14.80
2017-09-27T05:40:56.313Z,14.85
2017-09-27T05:43:27.721Z,14.87
2017-09-27T05:45:58.871Z,14.94
2017-09-27T05:48:36.090Z,15.00
2017-09-27T05:51:10.607Z,15.05
2017-09-27T05:53:42.239Z,15.07
2017-09-27T05:56:13.371Z,15.03
2017-09-27T05:58:48.652Z,15.04
2017-09-27T06:01:19.804Z,15.09
2017-09-27T06:03:51.528Z,15.15
2017-09-27T06:06:23.415Z,15.21
2017-09-27T06:08:54.535Z,15.23
2017-09-27T06:11:25.937Z,15.27
2017-09-27T06:13:57.664Z,15.30
2017-09-27T06:16:29.056Z,15.40
2017-09-27T06:19:00.253Z,15.52
2017-09-27T06:21:33.258Z,15.56
2017-09-27T06:24:06.008Z,15.62
2017-09-27T06:26:37.429Z,15.63
2017-09-27T06:29:10.127Z,15.59
2017-09-27T06:31:41.772Z,15.70
2017-09-27T06:34:12.840Z,15.79
2017-09-27T06:36:44.248Z,15.89
2017-09-27T06:39:15.363Z,15.92
2017-09-27T06:41:46.601Z,15.98
2017-09-27T06:44:18.053Z,16.17
2017-09-27T06:46:49.184Z,16.38
2017-09-27T06:49:20.615Z,16.49
2017-09-27T06:51:51.728Z,16.62
2017-09-27T06:54:22.865Z,16.69
2017-09-27T06:56:54.211Z,16.83
2017-09-27T06:59:25.344Z,16.90
2017-09-27T07:01:56.743Z,16.95
2017-09-27T07:04:27.896Z,17.04
2017-09-27T07:06:59.020Z,17.12
2017-09-27T07:09:31.423Z,17.18
2017-09-27T07:12:03.856Z,17.13
2017-09-27T07:14:36.610Z,17.27
2017-09-27T07:17:07.756Z,17.40
2017-09-27T07:19:39.046Z,17.58
2017-09-27T07:22:10.442Z,17.76
2017-09-27T07:24:41.610Z,17.94
2017-09-27T07:27:12.904Z,18.09
2017-09-27T07:29:44.454Z,18.54
2017-09-27T07:32:15.737Z,19.06
2017-09-27T07:34:46.940Z,19.47
2017-09-27T07:37:18.439Z,19.79
2017-09-27T07:39:49.789Z,19.93
2017-09-27T07:42:20.931Z,19.84
2017-09-27T07:44:52.414Z,19.53
2017-09-27T07:47:23.559Z,19.26
2017-09-27T07:49:55.047Z,19.11
2017-09-27T07:52:26.218Z,19.00
2017-09-27T07:54:57.341Z,18.84
2017-09-27T07:57:28.759Z,18.70
2017-09-27T08:00:00.412Z,18.75
2017-09-27T08:02:34.776Z,18.76
2017-09-27T08:05:05.963Z,18.95
2017-09-27T08:07:37.460Z,19.41
2017-09-27T08:10:09.465Z,19.77
2017-09-27T08:12:42.568Z,20.15
2017-09-27T08:15:14.017Z,20.77
2017-09-27T08:17:45.392Z,21.16
2017-09-27T08:20:16.543Z,21.37
2017-09-27T08:22:47.985Z,21.65
2017-09-27T08:25:20.080Z,21.82
2017-09-27T08:27:51.209Z,22.02
2017-09-27T08:30:23.051Z,21.94
2017-09-27T08:32:56.151Z,22.12
2017-09-27T08:35:29.873Z,22.35
2017-09-27T08:38:04.272Z,22.39
2017-09-27T08:40:37.238Z,22.24
2017-09-27T08:43:08.505Z,22.44
2017-09-27T08:45:40.023Z,22.72
2017-09-27T08:48:11.097Z,22.96
2017-09-27T08:50:42.415Z,23.21
2017-09-27T08:53:13.507Z,23.38
2017-09-27T08:55:44.548Z,23.48
2017-09-27T08:58:15.578Z,23.63
2017-09-27T09:00:46.664Z,23.73
2017-09-27T09:03:18.126Z,23.71
2017-09-27T09:05:49.431Z,23.71
2017-09-27T09:08:20.502Z,23.65
2017-09-27T09:10:51.990Z,23.96
2017-09-27T09:13:23.047Z,24.38
2017-09-27T09:15:54.385Z,24.54
2017-09-27T09:18:25.455Z,24.78
2017-09-27T09:20:56.838Z,25.03
2017-09-27T09:23:28.192Z,25.27
2017-09-27T09:25:59.226Z,25.35
2017-09-27T09:28:30.947Z,25.55
2017-09-27T09:31:02.853Z,25.78
2017-09-27T09:33:36.352Z,25.98
2017-09-27T09:36:07.795Z,26.11
2017-09-27T09:38:38.904Z,26.38
2017-09-27T09:41:10.063Z,26.23
2017-09-27T09:43:41.326Z,26.37
2017-09-27T09:46:12.417Z,26.56
2017-09-27T09:48:43.757Z,26.79
2017-09-27T09:51:14.844Z,27.16
2017-09-27T09:53:47.411Z,27.51
2017-09-27T09:56:20.033Z,27.71
2017-09-27T09:58:51.476Z,28.33
2017-09-27T10:01:22.539Z,29.95
2017-09-27T10:03:53.719Z,32.23
2017-09-27T10:06:25.082Z,33.88
2017-09-27T10:08:56.137Z,35.64
2017-09-27T10:11:27.298Z,36.77
2017-09-27T10:13:58.818Z,38.57
2017-09-27T10:16:31.720Z,39.57
2017-09-27T10:19:03.101Z,40.19
2017-09-27T10:21:35.551Z,41.31
2017-09-27T10:24:06.673Z,41.65
2017-09-27T10:26:38.280Z,43.00
2017-09-27T10:29:09.747Z,44.01
2017-09-27T10:31:40.920Z,45.23
2017-09-27T10:34:12.559Z,46.18
2017-09-27T10:36:43.682Z,47.00
2017-09-27T10:39:14.973Z,47.75
2017-09-27T10:41:46.757Z,48.33
2017-09-27T10:44:17.905Z,48.81
2017-09-27T10:46:49.361Z,49.81
2017-09-27T10:49:20.817Z,50.61
2017-09-27T10:51:51.893Z,50.97
2017-09-27T10:54:23.636Z,51.06
2017-09-27T10:56:54.729Z,50.76
2017-09-27T10:59:25.865Z,50.24
2017-09-27T11:01:57.274Z,51.60
2017-09-27T11:04:28.383Z,51.53
2017-09-27T11:06:59.612Z,51.28
2017-09-27T11:09:33.634Z,51.43
2017-09-27T11:12:05.952Z,51.74
2017-09-27T11:14:39.239Z,52.57
2017-09-27T11:17:10.297Z,53.36
2017-09-27T11:19:42.096Z,53.51
2017-09-27T11:22:13.746Z,53.89
2017-09-27T11:24:44.785Z,54.45
2017-09-27T11:27:16.423Z,54.44
2017-09-27T11:29:47.507Z,54.37
2017-09-27T11:32:18.668Z,53.60
2017-09-27T11:34:50.083Z,54.30
2017-09-27T11:37:21.187Z,54.29
2017-09-27T11:39:52.291Z,54.38
2017-09-27T11:42:23.704Z,54.19
2017-09-27T11:44:55.136Z,53.18
2017-09-27T11:47:26.217Z,54.33
2017-09-27T11:49:57.567Z,54.53
2017-09-27T11:52:28.842Z,55.25
2017-09-27T11:55:00.267Z,55.84
2017-09-27T11:57:32.093Z,55.43
2017-09-27T12:00:04.858Z,55.96
2017-09-27T12:02:36.932Z,56.62
2017-09-27T12:05:08.115Z,57.18
2017-09-27T12:07:39.449Z,56.99
2017-09-27T12:10:10.592Z,57.80
2017-09-27T12:12:41.689Z,58.39
2017-09-27T12:15:13.287Z,57.53
2017-09-27T12:17:45.095Z,57.11
2017-09-27T12:20:17.888Z,56.88
2017-09-27T12:22:49.327Z,57.38
2017-09-27T12:25:20.720Z,57.62
2017-09-27T12:27:56.583Z,57.88
2017-09-27T12:33:38.300Z,57.37
2017-09-27T12:36:12.589Z,56.32
2017-09-27T12:38:58.592Z,55.72
2017-09-27T12:41:33.109Z,55.60
2017-09-27T12:44:11.220Z,56.31
2017-09-27T12:46:48.616Z,55.44
2017-09-27T12:51:31.606Z,56.68
2017-09-27T12:54:11.228Z,56.86
2017-09-27T12:56:47.780Z,57.45
2017-09-27T12:59:30.017Z,57.74
2017-09-27T13:02:07.650Z,58.24
2017-09-27T13:04:46.756Z,57.75
2017-09-27T13:07:35.373Z,57.70
2017-09-27T13:10:10.929Z,57.77
2017-09-27T13:12:48.295Z,57.41
2017-09-27T13:15:19.404Z,57.33
2017-09-27T13:17:50.508Z,57.36
2017-09-27T13:20:21.705Z,56.67
2017-09-27T13:22:52.902Z,57.06
2017-09-27T13:25:23.979Z,55.94
2017-09-27T13:27:55.980Z,55.52
2017-09-27T13:30:27.301Z,55.96
2017-09-27T13:32:58.667Z,54.94
2017-09-27T13:35:29.783Z,55.10
2017-09-27T13:38:01.817Z,55.57
2017-09-27T13:40:35.864Z,53.66
2017-09-27T13:43:10.353Z,53.48
2017-09-27T13:45:45.562Z,55.16
2017-09-27T13:48:19.388Z,54.23
2017-09-27T13:50:54.469Z,54.71
2017-09-27T13:53:28.871Z,54.17
2017-09-27T13:56:04.103Z,54.77
2017-09-27T13:58:38.861Z,54.73
2017-09-27T14:01:12.455Z,54.03
2017-09-27T14:03:48.484Z,54.33
2017-09-27T14:06:22.164Z,54.52
2017-09-27T14:08:56.074Z,54.35
2017-09-27T14:11:31.313Z,54.01
2017-09-27T14:14:04.516Z,53.89
2017-09-27T14:16:35.554Z,53.02
2017-09-27T14:19:10.159Z,52.95
2017-09-27T14:24:47.256Z,52.51
2017-09-27T14:27:19.399Z,52.01
2017-09-27T14:29:51.861Z,52.07
2017-09-27T14:32:25.251Z,51.36
2017-09-27T14:34:56.349Z,50.76
2017-09-27T14:37:27.446Z,51.22
2017-09-27T14:39:58.535Z,51.33
2017-09-27T14:42:29.943Z,51.54
2017-09-27T14:45:01.295Z,51.51
2017-09-27T14:47:32.476Z,51.83
2017-09-27T14:50:07.622Z,51.26
2017-09-27T14:52:38.739Z,51.66
2017-09-27T14:55:10.131Z,51.34
2017-09-27T14:57:41.223Z,51.55
2017-09-27T15:00:12.852Z,51.11
2017-09-27T15:02:43.995Z,50.69
2017-09-27T15:05:15.992Z,50.16
2017-09-27T15:07:48.282Z,49.89
2017-09-27T15:10:23.024Z,49.64
2017-09-27T15:12:56.907Z,49.55
2017-09-27T15:15:29.749Z,49.47
2017-09-27T15:18:02.393Z,49.24
2017-09-27T15:20:33.907Z,48.61
2017-09-27T15:23:06.932Z,48.17
2017-09-27T15:25:39.804Z,47.64
2017-09-27T15:28:11.480Z,47.17
2017-09-27T15:30:42.783Z,46.68
2017-09-27T15:33:15.476Z,46.55
2017-09-27T15:35:47.334Z,46.52
2017-09-27T15:38:19.986Z,46.44
2017-09-27T15:40:52.991Z,45.97
2017-09-27T15:46:30.466Z,44.63
2017-09-27T15:49:02.568Z,44.14
2017-09-27T15:51:36.981Z,43.51
2017-09-27T15:54:10.092Z,43.23
2017-09-27T15:56:43.955Z,43.19
2017-09-27T15:59:18.874Z,42.85
2017-09-27T16:01:51.425Z,42.39
2017-09-27T16:04:26.742Z,41.86
2017-09-27T16:07:09.570Z,40.96
2017-09-27T16:09:40.874Z,40.38
2017-09-27T16:12:12.247Z,40.03
2017-09-27T16:14:43.364Z,39.84
2017-09-27T16:17:14.870Z,39.19
2017-09-27T16:19:45.957Z,38.88
2017-09-27T16:22:17.756Z,37.54
2017-09-27T16:24:48.849Z,35.46
2017-09-27T16:27:21.620Z,33.42
2017-09-27T16:29:52.733Z,31.90
2017-09-27T16:32:26.310Z,30.63
2017-09-27T16:34:57.404Z,29.70
2017-09-27T16:37:31.108Z,28.95
2017-09-27T16:40:04.443Z,28.18
2017-09-27T16:42:35.522Z,27.51
2017-09-27T16:45:10.283Z,27.01
2017-09-27T16:47:41.748Z,26.56
2017-09-27T16:50:19.460Z,26.20
2017-09-27T16:52:50.618Z,25.85
2017-09-27T16:55:22.939Z,25.56
2017-09-27T16:57:54.468Z,25.22
2017-09-27T17:00:27.898Z,25.00
2017-09-27T17:03:09.015Z,24.80
2017-09-27T17:05:42.917Z,24.62
2017-09-27T17:08:15.000Z,24.39
2017-09-27T17:10:47.515Z,24.16
2017-09-27T17:13:18.773Z,24.02
2017-09-27T17:15:51.126Z,23.84
2017-09-27T17:18:22.891Z,23.77
2017-09-27T17:20:54.446Z,23.61
2017-09-27T17:23:25.918Z,23.41
2017-09-27T17:25:58.514Z,23.31
2017-09-27T17:28:38.353Z,23.21
2017-09-27T17:31:11.183Z,23.12
2017-09-27T17:33:43.165Z,23.02
2017-09-27T17:36:14.635Z,22.88
2017-09-27T17:38:46.107Z,22.77
2017-09-27T17:41:17.846Z,22.68
2017-09-27T17:43:49.986Z,22.56
2017-09-27T17:46:21.670Z,22.48
2017-09-27T17:51:52.212Z,22.45
2017-09-27T17:54:28.291Z,22.38
2017-09-27T17:57:00.040Z,22.24
2017-09-27T17:59:33.139Z,22.15
2017-09-27T18:02:11.904Z,22.07
2017-09-27T18:04:47.242Z,21.98
2017-09-27T18:07:22.272Z,21.88
2017-09-27T18:09:57.235Z,21.84
2017-09-27T18:12:36.759Z,21.78
2017-09-27T18:15:10.547Z,21.71
2017-09-27T18:17:45.074Z,21.69
2017-09-27T18:20:17.405Z,21.67
2017-09-27T18:22:49.994Z,21.59
2017-09-27T18:25:23.359Z,21.55
2017-09-27T18:27:54.817Z,21.48
2017-09-27T18:30:28.291Z,21.46
2017-09-27T18:32:59.731Z,21.44
2017-09-27T18:35:32.361Z,21.42
2017-09-27T18:38:10.242Z,21.36
2017-09-27T18:40:42.757Z,21.34
2017-09-27T18:43:17.221Z,21.32
2017-09-27T18:45:48.576Z,21.25
2017-09-27T18:48:26.589Z,21.22
2017-09-27T18:51:01.654Z,21.19
2017-09-27T18:53:33.191Z,21.14
2017-09-27T18:56:07.028Z,21.11
2017-09-27T18:58:38.898Z,21.11
2017-09-27T19:01:11.364Z,21.04
2017-09-27T19:06:50.777Z,20.95
2017-09-27T19:09:21.861Z,20.89
2017-09-27T19:11:53.604Z,20.86
2017-09-27T19:14:24.747Z,20.84
2017-09-27T19:16:55.822Z,20.84
2017-09-27T19:19:27.122Z,20.83
2017-09-27T19:21:58.540Z,20.78
2017-09-27T19:24:29.967Z,20.75
2017-09-27T19:27:01.316Z,20.73
2017-09-27T19:29:33.964Z,20.70
2017-09-27T19:32:06.203Z,20.66
2017-09-27T19:34:37.365Z,20.63
2017-09-27T19:37:08.748Z,20.61
2017-09-27T19:39:40.410Z,20.59
2017-09-27T19:42:12.004Z,20.52
2017-09-27T19:44:43.076Z,20.49
2017-09-27T19:47:14.957Z,20.47
2017-09-27T19:49:46.065Z,20.45
2017-09-27T19:52:17.180Z,20.44
2017-09-27T19:54:48.703Z,20.41
2017-09-27T19:57:20.624Z,20.35
2017-09-27T19:59:51.894Z,20.34
2017-09-27T20:02:23.064Z,20.33
2017-09-27T20:04:54.127Z,20.28
2017-09-27T20:07:25.710Z,20.26
2017-09-27T20:09:56.799Z,20.25
2017-09-27T20:12:27.881Z,20.22
2017-09-27T20:15:02.398Z,20.21
2017-09-27T20:17:34.902Z,20.20
2017-09-27T20:20:06.064Z,20.18
2017-09-27T20:22:37.745Z,20.17
2017-09-27T20:25:08.925Z,20.16
2017-09-27T20:27:40.201Z,20.12
2017-09-27T20:30:11.305Z,20.07
2017-09-27T20:32:42.701Z,20.03
2017-09-27T20:35:13.900Z,19.97
2017-09-27T20:37:45.049Z,19.94
2017-09-27T20:40:16.429Z,19.88
2017-09-27T20:42:47.640Z,19.83
2017-09-27T20:45:19.689Z,19.82
2017-09-27T20:47:51.054Z,19.82
2017-09-27T20:50:22.107Z,19.81
2017-09-27T20:52:53.185Z,19.78
2017-09-27T20:55:24.592Z,19.73
2017-09-27T20:57:56.050Z,19.70
2017-09-27T21:00:27.176Z,19.68
2017-09-27T21:02:58.853Z,19.68
2017-09-27T21:05:30.116Z,19.69
2017-09-27T21:08:02.128Z,19.66
2017-09-27T21:10:35.067Z,19.62
2017-09-27T21:13:06.634Z,19.58
2017-09-27T21:15:37.806Z,19.54
2017-09-27T21:18:09.509Z,19.50
2017-09-27T21:20:40.576Z,19.46
2017-09-27T21:23:11.670Z,19.46
2017-09-27T21:25:43.148Z,19.43
2017-09-27T21:28:14.417Z,19.40
2017-09-27T21:30:45.444Z,19.39
2017-09-27T21:33:16.528Z,19.36
2017-09-27T21:35:47.576Z,19.37
2017-09-27T21:38:18.874Z,19.33
2017-09-27T21:40:50.373Z,19.30
2017-09-27T21:43:21.684Z,19.31
2017-09-27T21:45:52.805Z,19.29
2017-09-27T21:48:24.969Z,19.24
2017-09-27T21:50:56.173Z,19.18
2017-09-27T21:53:27.250Z,19.11
2017-09-27T21:55:58.390Z,19.10
2017-09-27T21:58:29.420Z,19.09
2017-09-27T22:01:00.480Z,19.07
2017-09-27T22:03:32.984Z,19.09
2017-09-27T22:06:05.057Z,19.04
2017-09-27T22:08:36.392Z,19.03
2017-09-27T22:11:07.488Z,19.00
2017-09-27T22:13:39.234Z,18.95
2017-09-27T22:16:10.351Z,18.96
2017-09-27T22:18:41.625Z,18.96
2017-09-27T22:21:12.835Z,18.97
2017-09-27T22:23:44.002Z,18.94
2017-09-27T22:26:15.188Z,18.93
2017-09-27T22:28:46.916Z,18.89
2017-09-27T22:31:18.029Z,18.89
2017-09-27T22:33:49.480Z,18.86
2017-09-27T22:36:20.632Z,18.86
2017-09-27T22:38:51.932Z,18.84
2017-09-27T22:41:23.033Z,18.84
2017-09-27T22:43:54.736Z,18.82
2017-09-27T22:46:25.845Z,18.79
2017-09-27T22:48:57.109Z,18.77
2017-09-27T22:51:28.213Z,18.77
2017-09-27T22:53:59.441Z,18.80
2017-09-27T22:56:32.243Z,18.80
2017-09-27T22:59:03.786Z,18.73
2017-09-27T23:01:35.934Z,18.68
2017-09-27T23:04:07.361Z,18.67
2017-09-27T23:06:38.482Z,18.67
2017-09-27T23:09:09.639Z,18.63
2017-09-27T23:11:41.100Z,18.58
2017-09-27T23:14:12.365Z,18.54
2017-09-27T23:16:43.507Z,18.48
2017-09-27T23:19:15.059Z,18.41
2017-09-27T23:21:46.175Z,18.39
2017-09-27T23:24:17.364Z,18.34
2017-09-27T23:26:48.454Z,18.29
2017-09-27T23:29:20.417Z,18.19
2017-09-27T23:31:51.522Z,18.14
2017-09-27T23:34:22.633Z,18.15
2017-09-27T23:36:53.741Z,18.10
2017-09-27T23:39:25.004Z,18.06
2017-09-27T23:41:56.445Z,18.01
2017-09-27T23:44:27.823Z,17.99
2017-09-27T23:46:58.942Z,17.91
2017-09-27T23:49:30.423Z,17.79
2017-09-27T23:52:02.409Z,17.69
2017-09-27T23:54:36.499Z,17.61
2017-09-27T23:57:07.714Z,17.48
2017-09-27T23:59:39.145Z,17.42
